Roswell, NM

12:36 AM MDT on May 28, 2015 (GMT -0600)
West Roswell Enchanted Hills | | Change Station
CLOSE
Current Station
Personal Weather Station
Location: Roswell, NM
Elevation: 3619 ft
Nearby Weather Stations

Elev 3619 ft 33.40 °N, 104.57 °W | Updated 4 seconds ago

Clear
Clear
68.9 °F
Feels Like 68.9 °F
N
1.0
Wind Variable Wind from SE

Today
High -- | Low -- °F
--% Chance of Precip.
Yesterday
High -- | Low -- °F
Precip. -- in
5:51 AM 8:00 PM
Waxing Gibbous, 73% visible
Pressure 29.83 in
Visibility 10.0 miles
Clouds Clear
Dew Point 60 °F
Humidity 73%
Rainfall 0.00 in
Snow Depth Not available.
UV 0 out of 12
Pollen 5.70 out of 12
Air Quality Not available.
Flu Activity Local Activity
METAR KROW 280551Z AUTO 20007KT 10SM CLR 19/13 A3001 RMK AO2 SLP099 T01940128 10322 20194 51012

More Conditions Fewer Conditions

Pressure 29.83 in
Visibility 10.0 miles
Clouds Clear
Dew Point 60 °F
Humidity 73%
Rainfall 0.00 in
Snow Depth Not available.
UV 0 out of 12
Pollen 5.70 out of 12
Air Quality Not available.
Flu Activity Local Activity
METAR KROW 280551Z AUTO 20007KT 10SM CLR 19/13 A3001 RMK AO2 SLP099 T01940128 10322 20194 51012

More Conditions Fewer Conditions

10-Day Weather Forecast

Almanac

Astronomy

May. 28, 2015 Rise Set
Actual Time
Civil Twilight
Nautical Twilight
Astronomical Twilight
Moon
Length of Visible Light
Length of Day
Tomorrow will be .
, % of the Moon is Illuminated

Today's Extremes

State Highs State Lows

Community

WunderPhotos

Upload Photos

1,824,931 photos uploaded!

WunderBlogs® & News

Nearby

Air Quality

  Air Quality AQ Index Pollutant
Not available.

Snow Depth

Station Depth Elevation

Earthquake Activity

City Distance Mag. Time & Date
Minimum magnitude displayed is 2.5.

Coastal Water Temperatures

Place Temperature

Stations

Nearby Weather Stations

Station Location Temp. Windchill Dew Point Humidity Wind Precip. Elev Updated Type